AirNav   Air Wisconsin pilot careers
 
 620 users online  

2RR River Ranch Resort Airport
River Ranch, Florida, USA

GOING TO RIVER RANCH?


FAA INFORMATION EFFECTIVE 01 FEBRUARY 2018

Location

FAA Identifier: 2RR
Lat/Long: 27-46-45.6000N / 081-12-14.1000W
27-46.760000N / 081-12.235000W
27.7793333 / -81.2039167
(estimated)
Elevation: 55 ft. / 17 m (estimated)
Variation: 03W (1985)
Time zone: UTC -5 (UTC -4 during Daylight Saving Time)
Zip code: 33853

Airport Operations

Airport use: Open to the public
Control tower: no
ARTCC: MIAMI CENTER
FSS: SAINT PETERSBURG FLIGHT SERVICE STATION
NOTAMs facility: PIE (NOTAM-D service available)
Attendance: CONTINUOUS
Wind indicator: lighted
Segmented circle: no
Beacon: white-green (lighted land airport)
RDO-CTL

Airport Communications

CTAF/UNICOM: 122.8

Nearby radio navigation aids

VOR radial/distance  VOR name  Freq  Var
MLBr244/35.9MELBOURNE VOR/DME110.0007W
TRVr286/38.4TREASURE VORTAC117.3007W

 
NDB name  Hdg/Dist  Freq  Var  ID
SATELLITE240/32.925706WSQT ... --.- -

Airport Services

Fuel available: 100LL
Parking: tiedowns
Airframe service: NONE
Powerplant service: NONE

Runway Information

Runway 16/34

Dimensions: 4950 x 75 ft. / 1509 x 23 m
Surface: asphalt, in fair condition
Runway edge lights: non-standard
Runway edge markings: RY 16/34 THLD MARKINGS HAVE INCORRECT SPACING.
RUNWAY 16  RUNWAY 34
Latitude: 27-47.134500N27-46.386667N
Longitude: 081-12.420833W081-12.050500W
Traffic pattern: leftright
Displaced threshold: 200 ft.1000 ft.
Markings: basic, in poor conditionbasic, in poor condition
Obstructions: 35 ft. tree, 317 ft. from runway, 10 ft. left of centerline, 3:1 slope to clear
RY 16 APCH RATIO 15:1 TO DSPLCD THLD.
40 ft. tree, 320 ft. from runway, 88 ft. left of centerline, 3:1 slope to clear
RY 34 APCH RATIO 30:1 FROM DSPLCD THLD.

Airport Ownership and Management from official FAA records

Ownership: Privately-owned
Owner: WESTGATE RESORTS CENTRAL FL INVEST
PO BOX 30030
RIVER RANCH, FL 33867-0030
Phone 863-692-0727
Manager: BOB MOUNT
3600 RIVER RANCH BOULEVARD
RIVER RANCH, FL 33867-0030
Phone 863-692-1321

Additional Remarks

RWY 34 250' TOWER E 3000' SE OF RWY END E 2400' RT OF CL.
30 FT BRUSH & TREES 125 FT FROM CNTRLN BOTH SIDES OF RY.

Instrument Procedures

There are no published instrument procedures at 2RR.

Some nearby airports with instrument procedures:

KAVO - Avon Park Executive Airport (21 nm SW)
KSEF - Sebring Regional Airport (21 nm S)
X07 - Lake Wales Municipal Airport (23 nm W)
KBOW - Bartow Municipal Airport (32 nm W)
KISM - Kissimmee Gateway Airport (33 nm N)
 
Loc | Ops | Rwys | IFR | FBO | Links
Com | Nav | Svcs | Stats | Notes

Reliance Aviation
AirBoss

 
Area around 2RR (River Ranch Resort Airport)
 
Road maps at: MapQuest Bing Google
 
Aerial photo
WARNING: Photo may not be current or correct
Aerial photo of 2RR (River Ranch Resort Airport)
Photo by Michael Ruperti
Photo taken 01-Aug-2009
from a Cessna 172 M.

Do you have a better or more recent aerial photo of River Ranch Resort Airport that you would like to share? If so, please send us your photo.

 
Sectional chart

 
Airport distance calculator
Flying to River Ranch Resort Airport? Find the distance to fly.

From to 2RR

Sunrise and sunset
Times for 21-Feb-2018
 Local
(UTC-5)
 Zulu
(UTC)
Morning civil twilight06:3411:34
Sunrise06:5811:58
Sunset18:1923:19
Evening civil twilight18:4323:43

Current date and time
Zulu (UTC)  21-Feb-2018 12:05:48
Local (UTC-5)  21-Feb-2018 07:05:48
 
METAR
KSEF 
21nm S 
211135Z AUTO 08003KT 10SM SCT001 BKN019 20/19 A3036 RMK AO2 T02000188
KBOW 
31nm W 
211155Z AUTO 08004KT 3SM BR SCT005 BKN021 19/ A3038 RMK AO2
KISM 
33nm N 
211156Z 00000KT 7SM SCT015 21/21 A3039 RMK AO2 SLP294 T02060206 10228 20206 53012
KGIF 
34nm NW 
211153Z AUTO 08005KT 7SM OVC003 21/21 A3039 RMK AO2 SLP288 T02060206 10222 20206 53012
KMLB 
35nm NE 
211153Z 11008KT 10SM CLR 24/21 A3038 RMK AO2 SLP285 T02390211 10244 20239 53011
KOBE 
36nm SE 
211155Z AUTO 00000KT 5SM BR SCT043 19/19 A3036 RMK AO2
X26 
38nm E 
SuperAWOS
210555Z AUTO 00000KT 10SM 23/23 A3037
KMCO 
39nm N 
211153Z 07005KT 8SM BCFG FEW015 20/20 A3039 RMK AO2 SLP288 T02000200 10228 20200 53012
TAF
KISM 
33nm N 
211138Z 2112/2212 10004KT P6SM FEW015 TEMPO 2112/2113 BKN015 FM211500 12008KT P6SM SCT045 FM220000 10006KT P6SM FEW030
KMLB 
35nm NE 
211138Z 2112/2212 12006KT P6SM SCT020 FM211500 11012G18KT P6SM SCT035 FM220000 10009KT P6SM SCT030
KMCO 
39nm N 
211138Z 2112/2218 09005KT P6SM FEW015 TEMPO 2112/2113 BKN015 FM211500 11010KT P6SM SCT040 FM220000 10006KT P6SM FEW030 FM221400 10010KT P6SM SCT040
NOTAMs
Click for the latest NOTAMs
NOTAMs are issued by the DoD/FAA and will open in a separate window not controlled by AirNav.

 

 
 

FBO, Fuel Providers, and Aircraft Ground Support

  
 Business Name 
 
 Contact 
 
 Services / Description 
 
Fuel Prices
 
Comments
  
Westgate River Ranch Aviation 863-692-2907
no information available

If you are affiliated with Westgate River Ranch Aviation and would like to show here your services, contact info, web link, logo, and more, click here
100LL
SS $3.99 
 Updated 30-Oct-2017
 
   write
SS=Self service
Update Fuel Prices
 

Would you like to see your business listed on this page?

 If your business provides an interesting product or service to pilots, flight crews, aircraft, or users of the River Ranch Resort Airport, you should consider listing it here.  To start the listing process, click on the button below
 
Add a business
 

Other Pages about River Ranch Resort Airport

www.westgatedestinations.com/...
 
Update a link
 
Copyright © AirNav, LLC. All rights reserved. Privacy Policy  Contact